SBUL/UDI METAR and TAF weather

Enter ICAO airport designator
Station Type Date Time Source
SBUL METAR 2020/02/24 09:00 UTC NOAA

SBUL 240900Z 36010KT 1700 R22/1700N R04/P2000N -RA BR BKN002 OVC100 20/19 Q1018


Station Type Date Time Source
SBUL Decoded METAR 2020/02/24 09:00 UTC NOAA

Uberlandia , Brazil (SBUL) 18-53S 048-14W
Feb 24, 2020 - 04:00 AM EST / 2020.02.24 0900 UTC
Wind: from the N (360 degrees) at 12 MPH (10 KT):0
Visibility: 1 mile(s):0
Sky conditions: overcast
Weather: light rain; mist
Temperature: 68 F (20 C)
Dew Point: 66 F (19 C)
Relative Humidity: 93%
Pressure (altimeter): 30.06 in. Hg (1018 hPa)
ob: SBUL 240900Z 36010KT 1700 R22/1700N R04/P2000N -RA BR BKN002 OVC100 20/19 Q1018
cycle: 9

Station Type Date Time Source
SBUL TAF 2020/02/24 06:36 UTC NOAA

TAF SBUL 240211Z 2406/2418 06010KT 9999 FEW045TN20/2409Z TX26/2417Z PROB30 2408/2411 BKN005
BECMG 2412/2414 36005KT
BECMG 2415/2417 BKN035 FEW045TCU
RMK PGN

Example: see airport list